sensor_id;sensor_type;location;lat;lon;timestamp;temperature;humidity
38784;DHT22;24531;45.502;12.238;2023-03-31T00:01:48;15.40;94.60
38784;DHT22;24531;45.502;12.238;2023-03-31T00:04:17;15.30;94.60
38784;DHT22;24531;45.502;12.238;2023-03-31T00:06:42;15.30;94.60
38784;DHT22;24531;45.502;12.238;2023-03-31T00:09:11;15.30;95.00
38784;DHT22;24531;45.502;12.238;2023-03-31T00:11:38;15.30;94.60
38784;DHT22;24531;45.502;12.238;2023-03-31T00:14:04;15.30;94.70
38784;DHT22;24531;45.502;12.238;2023-03-31T00:16:32;15.20;94.60
38784;DHT22;24531;45.502;12.238;2023-03-31T00:18:58;15.20;94.80
38784;DHT22;24531;45.502;12.238;2023-03-31T00:21:27;15.20;94.80
38784;DHT22;24531;45.502;12.238;2023-03-31T00:24:07;15.20;94.90
38784;DHT22;24531;45.502;12.238;2023-03-31T00:26:34;15.20;94.80
38784;DHT22;24531;45.502;12.238;2023-03-31T00:29:00;15.20;94.80
38784;DHT22;24531;45.502;12.238;2023-03-31T00:31:26;15.20;94.80
38784;DHT22;24531;45.502;12.238;2023-03-31T00:33:53;15.20;94.80
38784;DHT22;24531;45.502;12.238;2023-03-31T00:36:19;15.20;95.10
38784;DHT22;24531;45.502;12.238;2023-03-31T00:41:20;15.10;94.80
38784;DHT22;24531;45.502;12.238;2023-03-31T00:46:29;15.00;95.00
38784;DHT22;24531;45.502;12.238;2023-03-31T00:48:57;15.00;95.10
38784;DHT22;24531;45.502;12.238;2023-03-31T00:51:28;15.10;95.10
38784;DHT22;24531;45.502;12.238;2023-03-31T00:53:58;15.10;95.10
38784;DHT22;24531;45.502;12.238;2023-03-31T00:56:32;15.10;95.20
38784;DHT22;24531;45.502;12.238;2023-03-31T00:59:02;15.10;95.20
38784;DHT22;24531;45.502;12.238;2023-03-31T01:01:28;15.10;95.10
38784;DHT22;24531;45.502;12.238;2023-03-31T01:03:55;15.10;95.10
38784;DHT22;24531;45.502;12.238;2023-03-31T01:06:22;15.10;95.10
38784;DHT22;24531;45.502;12.238;2023-03-31T01:08:50;15.10;95.00
38784;DHT22;24531;45.502;12.238;2023-03-31T01:11:19;15.10;95.10
38784;DHT22;24531;45.502;12.238;2023-03-31T01:13:47;15.10;95.10
38784;DHT22;24531;45.502;12.238;2023-03-31T01:16:16;15.10;95.00
38784;DHT22;24531;45.502;12.238;2023-03-31T01:18:43;15.10;95.00
38784;DHT22;24531;45.502;12.238;2023-03-31T01:32:34;15.00;94.90
38784;DHT22;24531;45.502;12.238;2023-03-31T01:35:28;15.00;94.80
38784;DHT22;24531;45.502;12.238;2023-03-31T01:47:19;14.80;95.00
38784;DHT22;24531;45.502;12.238;2023-03-31T01:50:02;14.90;95.10
38784;DHT22;24531;45.502;12.238;2023-03-31T01:53:34;14.80;95.10
38784;DHT22;24531;45.502;12.238;2023-03-31T01:55:29;14.80;95.10
38784;DHT22;24531;45.502;12.238;2023-03-31T02:00:59;14.80;95.60
38784;DHT22;24531;45.502;12.238;2023-03-31T02:03:32;14.80;95.40
38784;DHT22;24531;45.502;12.238;2023-03-31T02:06:05;15.00;95.40
38784;DHT22;24531;45.502;12.238;2023-03-31T02:08:42;15.00;95.40
38784;DHT22;24531;45.502;12.238;2023-03-31T02:11:09;15.00;95.40
38784;DHT22;24531;45.502;12.238;2023-03-31T02:13:38;15.00;95.40
38784;DHT22;24531;45.502;12.238;2023-03-31T02:16:09;15.00;95.30
38784;DHT22;24531;45.502;12.238;2023-03-31T02:18:37;14.90;95.40
38784;DHT22;24531;45.502;12.238;2023-03-31T02:21:06;14.90;95.70
38784;DHT22;24531;45.502;12.238;2023-03-31T02:23:35;14.90;95.70
38784;DHT22;24531;45.502;12.238;2023-03-31T02:26:06;14.90;95.60
38784;DHT22;24531;45.502;12.238;2023-03-31T02:28:32;14.90;95.60
38784;DHT22;24531;45.502;12.238;2023-03-31T02:33:36;14.90;95.80
38784;DHT22;24531;45.502;12.238;2023-03-31T02:36:02;15.00;95.70
38784;DHT22;24531;45.502;12.238;2023-03-31T02:38:31;15.00;95.80
38784;DHT22;24531;45.502;12.238;2023-03-31T02:40:58;15.00;95.70
38784;DHT22;24531;45.502;12.238;2023-03-31T02:43:24;15.10;95.70
38784;DHT22;24531;45.502;12.238;2023-03-31T02:45:50;15.10;95.70
38784;DHT22;24531;45.502;12.238;2023-03-31T02:56:38;15.20;95.60
38784;DHT22;24531;45.502;12.238;2023-03-31T02:59:14;15.20;95.50
38784;DHT22;24531;45.502;12.238;2023-03-31T03:01:43;15.20;95.50
38784;DHT22;24531;45.502;12.238;2023-03-31T03:06:48;15.20;95.60
38784;DHT22;24531;45.502;12.238;2023-03-31T03:12:13;15.30;95.50
38784;DHT22;24531;45.502;12.238;2023-03-31T03:15:04;15.20;95.50
38784;DHT22;24531;45.502;12.238;2023-03-31T03:17:38;15.20;95.60
38784;DHT22;24531;45.502;12.238;2023-03-31T03:20:06;15.20;95.60
38784;DHT22;24531;45.502;12.238;2023-03-31T03:22:34;15.30;95.90
38784;DHT22;24531;45.502;12.238;2023-03-31T03:25:00;15.30;95.60
38784;DHT22;24531;45.502;12.238;2023-03-31T03:27:26;15.20;95.50
38784;DHT22;24531;45.502;12.238;2023-03-31T03:29:52;15.20;95.70
38784;DHT22;24531;45.502;12.238;2023-03-31T03:32:18;15.10;95.70
38784;DHT22;24531;45.502;12.238;2023-03-31T03:34:44;15.00;95.60
38784;DHT22;24531;45.502;12.238;2023-03-31T03:37:10;14.90;95.60
38784;DHT22;24531;45.502;12.238;2023-03-31T03:39:36;14.80;95.90
38784;DHT22;24531;45.502;12.238;2023-03-31T03:42:02;14.70;95.90
38784;DHT22;24531;45.502;12.238;2023-03-31T03:44:27;14.70;95.90
38784;DHT22;24531;45.502;12.238;2023-03-31T03:46:53;14.60;96.00
38784;DHT22;24531;45.502;12.238;2023-03-31T03:49:19;14.50;96.20
38784;DHT22;24531;45.502;12.238;2023-03-31T03:51:45;14.60;96.10
38784;DHT22;24531;45.502;12.238;2023-03-31T03:54:11;14.50;96.00
38784;DHT22;24531;45.502;12.238;2023-03-31T03:56:37;14.50;96.10
38784;DHT22;24531;45.502;12.238;2023-03-31T03:59:03;14.40;96.20
38784;DHT22;24531;45.502;12.238;2023-03-31T04:01:28;14.40;96.30
38784;DHT22;24531;45.502;12.238;2023-03-31T04:03:54;14.40;96.40
38784;DHT22;24531;45.502;12.238;2023-03-31T04:06:20;14.50;96.40
38784;DHT22;24531;45.502;12.238;2023-03-31T04:08:46;14.40;96.30
38784;DHT22;24531;45.502;12.238;2023-03-31T04:11:16;14.50;96.50
38784;DHT22;24531;45.502;12.238;2023-03-31T04:13:46;14.50;96.50
38784;DHT22;24531;45.502;12.238;2023-03-31T04:16:12;14.60;96.70
38784;DHT22;24531;45.502;12.238;2023-03-31T04:18:37;14.70;96.50
38784;DHT22;24531;45.502;12.238;2023-03-31T04:21:11;14.80;96.50
38784;DHT22;24531;45.502;12.238;2023-03-31T04:23:40;14.90;96.40
38784;DHT22;24531;45.502;12.238;2023-03-31T04:26:15;14.80;96.30
38784;DHT22;24531;45.502;12.238;2023-03-31T04:28:42;14.90;96.40
38784;DHT22;24531;45.502;12.238;2023-03-31T04:31:12;14.90;96.30
38784;DHT22;24531;45.502;12.238;2023-03-31T04:33:50;14.90;96.40
38784;DHT22;24531;45.502;12.238;2023-03-31T04:36:16;15.00;96.30
38784;DHT22;24531;45.502;12.238;2023-03-31T04:38:43;15.00;96.30
38784;DHT22;24531;45.502;12.238;2023-03-31T04:41:12;15.10;96.40
38784;DHT22;24531;45.502;12.238;2023-03-31T04:43:38;15.00;96.10
38784;DHT22;24531;45.502;12.238;2023-03-31T04:46:03;14.90;96.40
38784;DHT22;24531;45.502;12.238;2023-03-31T04:48:29;15.00;96.50
38784;DHT22;24531;45.502;12.238;2023-03-31T04:50:54;15.00;96.30
38784;DHT22;24531;45.502;12.238;2023-03-31T04:53:20;14.90;96.60
38784;DHT22;24531;45.502;12.238;2023-03-31T04:55:50;14.90;96.40
38784;DHT22;24531;45.502;12.238;2023-03-31T04:58:16;14.90;96.50
38784;DHT22;24531;45.502;12.238;2023-03-31T05:00:42;15.00;96.50
38784;DHT22;24531;45.502;12.238;2023-03-31T05:03:07;15.10;96.60
38784;DHT22;24531;45.502;12.238;2023-03-31T05:05:34;15.10;96.50
38784;DHT22;24531;45.502;12.238;2023-03-31T05:08:00;15.20;96.40
38784;DHT22;24531;45.502;12.238;2023-03-31T05:10:26;15.20;96.20
38784;DHT22;24531;45.502;12.238;2023-03-31T05:12:51;15.20;96.30
38784;DHT22;24531;45.502;12.238;2023-03-31T05:15:17;15.20;96.20
38784;DHT22;24531;45.502;12.238;2023-03-31T05:17:43;15.20;96.50
38784;DHT22;24531;45.502;12.238;2023-03-31T05:20:09;15.10;96.20
38784;DHT22;24531;45.502;12.238;2023-03-31T05:22:37;15.10;96.30
38784;DHT22;24531;45.502;12.238;2023-03-31T05:25:04;15.10;96.30
38784;DHT22;24531;45.502;12.238;2023-03-31T05:27:30;15.00;96.60
38784;DHT22;24531;45.502;12.238;2023-03-31T05:29:56;15.10;96.70
38784;DHT22;24531;45.502;12.238;2023-03-31T05:32:23;15.20;96.60
38784;DHT22;24531;45.502;12.238;2023-03-31T05:34:49;15.30;96.50
38784;DHT22;24531;45.502;12.238;2023-03-31T05:37:19;15.30;96.50
38784;DHT22;24531;45.502;12.238;2023-03-31T05:39:45;15.30;96.40
38784;DHT22;24531;45.502;12.238;2023-03-31T05:42:11;15.40;96.60
38784;DHT22;24531;45.502;12.238;2023-03-31T05:44:37;15.40;96.60
38784;DHT22;24531;45.502;12.238;2023-03-31T05:47:02;15.50;96.60
38784;DHT22;24531;45.502;12.238;2023-03-31T05:49:28;15.50;96.50
38784;DHT22;24531;45.502;12.238;2023-03-31T05:51:53;15.60;96.50
38784;DHT22;24531;45.502;12.238;2023-03-31T05:54:20;15.60;96.50
38784;DHT22;24531;45.502;12.238;2023-03-31T05:56:47;15.60;96.50
38784;DHT22;24531;45.502;12.238;2023-03-31T05:59:12;15.60;96.50
38784;DHT22;24531;45.502;12.238;2023-03-31T06:01:38;15.60;96.50
38784;DHT22;24531;45.502;12.238;2023-03-31T06:04:04;15.70;96.50
38784;DHT22;24531;45.502;12.238;2023-03-31T06:06:30;15.70;96.50
38784;DHT22;24531;45.502;12.238;2023-03-31T06:08:57;15.70;96.50
38784;DHT22;24531;45.502;12.238;2023-03-31T06:11:23;15.70;96.50
38784;DHT22;24531;45.502;12.238;2023-03-31T06:13:49;15.70;96.60
38784;DHT22;24531;45.502;12.238;2023-03-31T06:16:15;15.70;96.60
38784;DHT22;24531;45.502;12.238;2023-03-31T06:18:41;15.70;97.00
38784;DHT22;24531;45.502;12.238;2023-03-31T06:21:10;15.70;96.70
38784;DHT22;24531;45.502;12.238;2023-03-31T06:23:36;15.70;96.70
38784;DHT22;24531;45.502;12.238;2023-03-31T06:26:06;15.70;96.70
38784;DHT22;24531;45.502;12.238;2023-03-31T06:28:33;15.70;96.70
38784;DHT22;24531;45.502;12.238;2023-03-31T06:31:04;15.70;96.70
38784;DHT22;24531;45.502;12.238;2023-03-31T06:33:31;15.70;96.60
38784;DHT22;24531;45.502;12.238;2023-03-31T06:35:57;15.70;96.60
38784;DHT22;24531;45.502;12.238;2023-03-31T06:38:24;15.70;97.00
38784;DHT22;24531;45.502;12.238;2023-03-31T06:40:49;15.70;96.60
38784;DHT22;24531;45.502;12.238;2023-03-31T06:43:15;15.70;96.60
38784;DHT22;24531;45.502;12.238;2023-03-31T06:45:40;15.80;96.50
38784;DHT22;24531;45.502;12.238;2023-03-31T06:48:06;15.80;96.50
38784;DHT22;24531;45.502;12.238;2023-03-31T06:50:32;15.80;96.50
38784;DHT22;24531;45.502;12.238;2023-03-31T06:52:57;15.80;96.50
38784;DHT22;24531;45.502;12.238;2023-03-31T06:55:24;15.80;96.50
38784;DHT22;24531;45.502;12.238;2023-03-31T06:57:49;15.80;96.50
38784;DHT22;24531;45.502;12.238;2023-03-31T07:00:16;15.70;96.60
38784;DHT22;24531;45.502;12.238;2023-03-31T07:02:41;15.70;96.70
38784;DHT22;24531;45.502;12.238;2023-03-31T07:05:07;15.80;96.70
38784;DHT22;24531;45.502;12.238;2023-03-31T07:07:33;15.80;96.70
38784;DHT22;24531;45.502;12.238;2023-03-31T07:09:59;15.80;96.60
38784;DHT22;24531;45.502;12.238;2023-03-31T07:12:24;15.90;96.70
38784;DHT22;24531;45.502;12.238;2023-03-31T07:14:50;15.90;96.60
38784;DHT22;24531;45.502;12.238;2023-03-31T07:17:16;15.90;96.60
38784;DHT22;24531;45.502;12.238;2023-03-31T07:19:42;15.90;96.60
38784;DHT22;24531;45.502;12.238;2023-03-31T07:22:12;15.90;96.60
38784;DHT22;24531;45.502;12.238;2023-03-31T07:24:38;15.90;96.60
38784;DHT22;24531;45.502;12.238;2023-03-31T07:27:04;15.90;96.50
38784;DHT22;24531;45.502;12.238;2023-03-31T07:29:30;15.90;96.60
38784;DHT22;24531;45.502;12.238;2023-03-31T07:31:56;15.90;96.60
38784;DHT22;24531;45.502;12.238;2023-03-31T07:34:21;15.80;96.60
38784;DHT22;24531;45.502;12.238;2023-03-31T07:36:47;15.80;96.60
38784;DHT22;24531;45.502;12.238;2023-03-31T07:39:13;15.80;96.60
38784;DHT22;24531;45.502;12.238;2023-03-31T07:41:38;15.80;96.70
38784;DHT22;24531;45.502;12.238;2023-03-31T07:44:05;15.80;96.60
38784;DHT22;24531;45.502;12.238;2023-03-31T07:46:30;15.70;96.70
38784;DHT22;24531;45.502;12.238;2023-03-31T07:48:56;15.70;96.70
38784;DHT22;24531;45.502;12.238;2023-03-31T07:51:25;15.70;96.70
38784;DHT22;24531;45.502;12.238;2023-03-31T07:53:51;15.80;96.80
38784;DHT22;24531;45.502;12.238;2023-03-31T07:56:22;15.80;96.70
38784;DHT22;24531;45.502;12.238;2023-03-31T07:58:49;15.80;96.60
38784;DHT22;24531;45.502;12.238;2023-03-31T08:01:17;15.80;96.60
38784;DHT22;24531;45.502;12.238;2023-03-31T08:03:44;15.80;96.60
38784;DHT22;24531;45.502;12.238;2023-03-31T08:06:11;15.80;96.70
38784;DHT22;24531;45.502;12.238;2023-03-31T08:08:37;15.90;96.70
38784;DHT22;24531;45.502;12.238;2023-03-31T08:11:08;15.90;96.70
38784;DHT22;24531;45.502;12.238;2023-03-31T08:13:33;15.90;96.70
38784;DHT22;24531;45.502;12.238;2023-03-31T08:15:59;15.90;96.80
38784;DHT22;24531;45.502;12.238;2023-03-31T08:18:25;16.00;96.80
38784;DHT22;24531;45.502;12.238;2023-03-31T08:20:50;16.00;96.80
38784;DHT22;24531;45.502;12.238;2023-03-31T08:23:16;16.10;96.70
38784;DHT22;24531;45.502;12.238;2023-03-31T08:25:41;16.10;96.70
38784;DHT22;24531;45.502;12.238;2023-03-31T08:28:07;16.10;96.70
38784;DHT22;24531;45.502;12.238;2023-03-31T08:30:39;16.10;96.70
38784;DHT22;24531;45.502;12.238;2023-03-31T08:33:06;16.10;96.70
38784;DHT22;24531;45.502;12.238;2023-03-31T08:35:36;16.20;96.70
38784;DHT22;24531;45.502;12.238;2023-03-31T08:38:02;16.20;96.60
38784;DHT22;24531;45.502;12.238;2023-03-31T08:40:30;16.20;96.70
38784;DHT22;24531;45.502;12.238;2023-03-31T08:43:11;16.20;96.70
38784;DHT22;24531;45.502;12.238;2023-03-31T08:45:41;16.30;96.80
38784;DHT22;24531;45.502;12.238;2023-03-31T08:50:49;16.40;96.70
38784;DHT22;24531;45.502;12.238;2023-03-31T08:53:31;16.40;96.60
38784;DHT22;24531;45.502;12.238;2023-03-31T08:55:58;16.40;96.60
38784;DHT22;24531;45.502;12.238;2023-03-31T08:58:45;16.40;96.60
38784;DHT22;24531;45.502;12.238;2023-03-31T09:01:35;16.50;96.60
38784;DHT22;24531;45.502;12.238;2023-03-31T09:12:06;16.70;96.40
38784;DHT22;24531;45.502;12.238;2023-03-31T09:14:41;16.70;96.50
38784;DHT22;24531;45.502;12.238;2023-03-31T09:17:18;16.70;96.50
38784;DHT22;24531;45.502;12.238;2023-03-31T09:22:45;16.70;96.40
38784;DHT22;24531;45.502;12.238;2023-03-31T09:25:19;16.80;96.50
38784;DHT22;24531;45.502;12.238;2023-03-31T09:27:48;16.90;96.40
38784;DHT22;24531;45.502;12.238;2023-03-31T09:30:16;16.90;96.40
38784;DHT22;24531;45.502;12.238;2023-03-31T09:32:47;17.00;96.30
38784;DHT22;24531;45.502;12.238;2023-03-31T09:35:19;17.00;96.30
38784;DHT22;24531;45.502;12.238;2023-03-31T09:37:46;17.00;96.30
38784;DHT22;24531;45.502;12.238;2023-03-31T09:40:23;17.00;96.20
38784;DHT22;24531;45.502;12.238;2023-03-31T09:43:05;17.00;96.10
38784;DHT22;24531;45.502;12.238;2023-03-31T09:45:32;17.00;96.10
38784;DHT22;24531;45.502;12.238;2023-03-31T09:48:04;17.00;96.10
38784;DHT22;24531;45.502;12.238;2023-03-31T09:50:37;17.10;96.10
38784;DHT22;24531;45.502;12.238;2023-03-31T09:53:14;17.00;96.20
38784;DHT22;24531;45.502;12.238;2023-03-31T09:55:44;17.10;96.30
38784;DHT22;24531;45.502;12.238;2023-03-31T09:58:15;17.10;96.30
38784;DHT22;24531;45.502;12.238;2023-03-31T10:00:54;17.20;96.40
38784;DHT22;24531;45.502;12.238;2023-03-31T10:03:21;17.20;96.30
38784;DHT22;24531;45.502;12.238;2023-03-31T10:05:50;17.30;96.30
38784;DHT22;24531;45.502;12.238;2023-03-31T10:08:23;17.30;96.20
38784;DHT22;24531;45.502;12.238;2023-03-31T10:11:09;17.30;96.10
38784;DHT22;24531;45.502;12.238;2023-03-31T10:16:23;17.30;96.10
38784;DHT22;24531;45.502;12.238;2023-03-31T10:18:52;17.30;96.10
38784;DHT22;24531;45.502;12.238;2023-03-31T10:21:23;17.30;96.00
38784;DHT22;24531;45.502;12.238;2023-03-31T10:23:50;17.40;96.10
38784;DHT22;24531;45.502;12.238;2023-03-31T10:26:22;17.40;96.10
38784;DHT22;24531;45.502;12.238;2023-03-31T10:28:50;17.40;96.00
38784;DHT22;24531;45.502;12.238;2023-03-31T10:31:18;17.30;96.00
38784;DHT22;24531;45.502;12.238;2023-03-31T10:33:47;17.40;96.10
38784;DHT22;24531;45.502;12.238;2023-03-31T10:36:26;17.40;96.10
38784;DHT22;24531;45.502;12.238;2023-03-31T10:38:54;17.40;96.00
38784;DHT22;24531;45.502;12.238;2023-03-31T10:41:26;17.40;95.90
38784;DHT22;24531;45.502;12.238;2023-03-31T10:43:53;17.40;95.90
38784;DHT22;24531;45.502;12.238;2023-03-31T10:46:20;17.40;95.90
38784;DHT22;24531;45.502;12.238;2023-03-31T10:49:14;17.40;96.00
38784;DHT22;24531;45.502;12.238;2023-03-31T10:51:51;17.40;96.00
38784;DHT22;24531;45.502;12.238;2023-03-31T10:54:17;17.50;96.30
38784;DHT22;24531;45.502;12.238;2023-03-31T10:56:50;17.50;95.90
38784;DHT22;24531;45.502;12.238;2023-03-31T11:02:31;17.60;95.80
38784;DHT22;24531;45.502;12.238;2023-03-31T11:07:52;17.80;95.60
38784;DHT22;24531;45.502;12.238;2023-03-31T11:10:34;17.80;95.30
38784;DHT22;24531;45.502;12.238;2023-03-31T11:13:22;17.80;95.40
38784;DHT22;24531;45.502;12.238;2023-03-31T11:21:37;18.20;95.10
38784;DHT22;24531;45.502;12.238;2023-03-31T11:27:00;18.30;94.70
38784;DHT22;24531;45.502;12.238;2023-03-31T11:35:39;18.30;94.50
38784;DHT22;24531;45.502;12.238;2023-03-31T11:41:02;18.20;94.20
38784;DHT22;24531;45.502;12.238;2023-03-31T11:43:34;18.20;94.30
38784;DHT22;24531;45.502;12.238;2023-03-31T11:46:08;18.20;94.30
38784;DHT22;24531;45.502;12.238;2023-03-31T11:49:03;18.20;94.20
38784;DHT22;24531;45.502;12.238;2023-03-31T11:56:52;18.30;93.90
38784;DHT22;24531;45.502;12.238;2023-03-31T11:59:19;18.40;93.90
38784;DHT22;24531;45.502;12.238;2023-03-31T12:02:22;18.60;94.00
38784;DHT22;24531;45.502;12.238;2023-03-31T12:04:52;18.60;93.70
38784;DHT22;24531;45.502;12.238;2023-03-31T12:07:38;18.70;93.60
38784;DHT22;24531;45.502;12.238;2023-03-31T12:15:51;19.00;93.00
38784;DHT22;24531;45.502;12.238;2023-03-31T12:18:22;19.00;93.00
38784;DHT22;24531;45.502;12.238;2023-03-31T12:20:53;19.10;92.90
38784;DHT22;24531;45.502;12.238;2023-03-31T12:23:23;19.00;92.80
38784;DHT22;24531;45.502;12.238;2023-03-31T12:28:25;19.00;92.70
38784;DHT22;24531;45.502;12.238;2023-03-31T12:30:54;19.00;92.70
38784;DHT22;24531;45.502;12.238;2023-03-31T12:33:25;19.00;92.80
38784;DHT22;24531;45.502;12.238;2023-03-31T12:50:13;18.90;92.70
38784;DHT22;24531;45.502;12.238;2023-03-31T12:55:39;18.90;92.70
38784;DHT22;24531;45.502;12.238;2023-03-31T13:06:10;19.00;92.60
38784;DHT22;24531;45.502;12.238;2023-03-31T13:11:20;18.80;92.70
38784;DHT22;24531;45.502;12.238;2023-03-31T13:16:39;18.80;93.10
38784;DHT22;24531;45.502;12.238;2023-03-31T13:19:05;18.80;93.00
38784;DHT22;24531;45.502;12.238;2023-03-31T13:21:30;18.80;93.20
38784;DHT22;24531;45.502;12.238;2023-03-31T13:24:00;18.80;93.10
38784;DHT22;24531;45.502;12.238;2023-03-31T13:29:43;18.80;93.00
38784;DHT22;24531;45.502;12.238;2023-03-31T13:32:19;18.60;92.90
38784;DHT22;24531;45.502;12.238;2023-03-31T13:37:56;18.50;93.00
38784;DHT22;24531;45.502;12.238;2023-03-31T13:40:51;18.50;93.00
38784;DHT22;24531;45.502;12.238;2023-03-31T13:59:47;17.90;93.30
38784;DHT22;24531;45.502;12.238;2023-03-31T14:05:29;17.80;93.40
38784;DHT22;24531;45.502;12.238;2023-03-31T14:08:13;17.80;93.40
38784;DHT22;24531;45.502;12.238;2023-03-31T14:10:42;17.70;93.40
38784;DHT22;24531;45.502;12.238;2023-03-31T14:13:14;17.70;93.30
38784;DHT22;24531;45.502;12.238;2023-03-31T14:15:49;17.70;93.40
38784;DHT22;24531;45.502;12.238;2023-03-31T14:18:20;17.60;93.40
38784;DHT22;24531;45.502;12.238;2023-03-31T14:24:04;17.50;93.30
38784;DHT22;24531;45.502;12.238;2023-03-31T14:37:18;17.40;93.20
38784;DHT22;24531;45.502;12.238;2023-03-31T14:39:56;17.40;93.10
38784;DHT22;24531;45.502;12.238;2023-03-31T14:42:24;17.40;93.10
38784;DHT22;24531;45.502;12.238;2023-03-31T14:44:55;17.40;93.10
38784;DHT22;24531;45.502;12.238;2023-03-31T14:47:24;17.30;93.10
38784;DHT22;24531;45.502;12.238;2023-03-31T14:50:27;17.40;93.20
38784;DHT22;24531;45.502;12.238;2023-03-31T14:52:49;17.40;93.20
38784;DHT22;24531;45.502;12.238;2023-03-31T14:55:20;17.40;93.20
38784;DHT22;24531;45.502;12.238;2023-03-31T14:57:48;17.30;93.20
38784;DHT22;24531;45.502;12.238;2023-03-31T15:00:23;17.30;93.30
38784;DHT22;24531;45.502;12.238;2023-03-31T15:02:49;17.30;93.40
38784;DHT22;24531;45.502;12.238;2023-03-31T15:05:28;17.30;93.50
38784;DHT22;24531;45.502;12.238;2023-03-31T15:08:20;17.20;93.50
38784;DHT22;24531;45.502;12.238;2023-03-31T15:10:54;17.20;93.50
38784;DHT22;24531;45.502;12.238;2023-03-31T15:13:32;17.20;93.50
38784;DHT22;24531;45.502;12.238;2023-03-31T15:15:59;17.20;93.50
38784;DHT22;24531;45.502;12.238;2023-03-31T15:18:43;17.20;93.50
38784;DHT22;24531;45.502;12.238;2023-03-31T15:21:19;17.20;93.70
38784;DHT22;24531;45.502;12.238;2023-03-31T15:23:45;17.20;93.80
38784;DHT22;24531;45.502;12.238;2023-03-31T15:26:11;17.20;93.80
38784;DHT22;24531;45.502;12.238;2023-03-31T15:29:07;17.20;93.90
38784;DHT22;24531;45.502;12.238;2023-03-31T15:31:36;17.20;94.00
38784;DHT22;24531;45.502;12.238;2023-03-31T15:34:13;17.20;94.00
38784;DHT22;24531;45.502;12.238;2023-03-31T15:36:39;17.10;94.00
38784;DHT22;24531;45.502;12.238;2023-03-31T15:39:05;17.10;94.10
38784;DHT22;24531;45.502;12.238;2023-03-31T15:41:31;17.10;94.10
38784;DHT22;24531;45.502;12.238;2023-03-31T15:46:57;17.10;94.30
38784;DHT22;24531;45.502;12.238;2023-03-31T15:49:24;17.20;94.30
38784;DHT22;24531;45.502;12.238;2023-03-31T15:51:54;17.20;94.60
38784;DHT22;24531;45.502;12.238;2023-03-31T15:54:36;17.20;94.30
38784;DHT22;24531;45.502;12.238;2023-03-31T15:57:05;17.20;94.30
38784;DHT22;24531;45.502;12.238;2023-03-31T15:59:51;17.20;94.30
38784;DHT22;24531;45.502;12.238;2023-03-31T16:02:42;17.10;94.80
38784;DHT22;24531;45.502;12.238;2023-03-31T16:07:54;17.00;94.60
38784;DHT22;24531;45.502;12.238;2023-03-31T16:10:21;17.10;94.50
38784;DHT22;24531;45.502;12.238;2023-03-31T16:12:57;17.00;94.60
38784;DHT22;24531;45.502;12.238;2023-03-31T16:15:33;17.00;94.60
38784;DHT22;24531;45.502;12.238;2023-03-31T16:18:04;17.10;94.70
38784;DHT22;24531;45.502;12.238;2023-03-31T16:20:34;17.10;94.60
38784;DHT22;24531;45.502;12.238;2023-03-31T16:23:02;17.10;94.60
38784;DHT22;24531;45.502;12.238;2023-03-31T16:25:38;17.00;94.70
38784;DHT22;24531;45.502;12.238;2023-03-31T16:28:05;17.00;94.80
38784;DHT22;24531;45.502;12.238;2023-03-31T16:30:34;16.90;94.90
38784;DHT22;24531;45.502;12.238;2023-03-31T16:33:01;17.00;95.00
38784;DHT22;24531;45.502;12.238;2023-03-31T16:35:36;17.00;95.00
38784;DHT22;24531;45.502;12.238;2023-03-31T16:38:03;17.00;95.00
38784;DHT22;24531;45.502;12.238;2023-03-31T16:40:30;16.90;95.10
38784;DHT22;24531;45.502;12.238;2023-03-31T16:45:42;16.90;95.20
38784;DHT22;24531;45.502;12.238;2023-03-31T16:48:08;16.90;95.30
38784;DHT22;24531;45.502;12.238;2023-03-31T16:50:34;16.90;95.40
38784;DHT22;24531;45.502;12.238;2023-03-31T16:53:00;16.90;95.50
38784;DHT22;24531;45.502;12.238;2023-03-31T16:55:26;16.90;95.60
38784;DHT22;24531;45.502;12.238;2023-03-31T16:57:52;16.90;95.60
38784;DHT22;24531;45.502;12.238;2023-03-31T17:00:19;16.90;95.60
38784;DHT22;24531;45.502;12.238;2023-03-31T17:02:44;16.90;95.70
38784;DHT22;24531;45.502;12.238;2023-03-31T17:05:10;16.90;95.70
38784;DHT22;24531;45.502;12.238;2023-03-31T17:07:36;16.90;95.70
38784;DHT22;24531;45.502;12.238;2023-03-31T17:10:02;16.80;95.80
38784;DHT22;24531;45.502;12.238;2023-03-31T17:12:27;16.70;96.00
38784;DHT22;24531;45.502;12.238;2023-03-31T17:14:53;16.70;96.00
38784;DHT22;24531;45.502;12.238;2023-03-31T17:17:18;16.70;96.10
38784;DHT22;24531;45.502;12.238;2023-03-31T17:19:45;16.70;96.10
38784;DHT22;24531;45.502;12.238;2023-03-31T17:22:10;16.60;96.20
38784;DHT22;24531;45.502;12.238;2023-03-31T17:24:36;16.60;96.30
38784;DHT22;24531;45.502;12.238;2023-03-31T17:27:03;16.60;96.40
38784;DHT22;24531;45.502;12.238;2023-03-31T17:29:28;16.60;96.40
38784;DHT22;24531;45.502;12.238;2023-03-31T17:31:54;16.60;96.50
38784;DHT22;24531;45.502;12.238;2023-03-31T17:34:20;16.60;96.50
38784;DHT22;24531;45.502;12.238;2023-03-31T17:36:45;16.60;96.40
38784;DHT22;24531;45.502;12.238;2023-03-31T17:39:11;16.60;96.50
38784;DHT22;24531;45.502;12.238;2023-03-31T17:41:37;16.50;96.50
38784;DHT22;24531;45.502;12.238;2023-03-31T17:44:02;16.60;96.60
38784;DHT22;24531;45.502;12.238;2023-03-31T17:46:29;16.50;96.70
38784;DHT22;24531;45.502;12.238;2023-03-31T17:48:55;16.50;96.80
38784;DHT22;24531;45.502;12.238;2023-03-31T17:51:22;16.60;96.80
38784;DHT22;24531;45.502;12.238;2023-03-31T17:53:48;16.50;96.80
38784;DHT22;24531;45.502;12.238;2023-03-31T17:56:16;16.50;96.90
38784;DHT22;24531;45.502;12.238;2023-03-31T17:58:42;16.50;97.00
38784;DHT22;24531;45.502;12.238;2023-03-31T18:01:08;16.40;97.10
38784;DHT22;24531;45.502;12.238;2023-03-31T18:03:34;16.40;97.20
38784;DHT22;24531;45.502;12.238;2023-03-31T18:06:08;16.40;97.30
38784;DHT22;24531;45.502;12.238;2023-03-31T18:08:36;16.30;97.40
38784;DHT22;24531;45.502;12.238;2023-03-31T18:11:02;16.30;97.50
38784;DHT22;24531;45.502;12.238;2023-03-31T18:13:30;16.30;97.60
38784;DHT22;24531;45.502;12.238;2023-03-31T18:15:56;16.30;97.60
38784;DHT22;24531;45.502;12.238;2023-03-31T18:18:25;16.30;97.80
38784;DHT22;24531;45.502;12.238;2023-03-31T18:20:54;16.30;97.80
38784;DHT22;24531;45.502;12.238;2023-03-31T18:23:21;16.40;97.80
38784;DHT22;24531;45.502;12.238;2023-03-31T18:25:46;16.30;97.80
38784;DHT22;24531;45.502;12.238;2023-03-31T18:28:14;16.30;97.80